sensor_id;sensor_type;location;lat;lon;timestamp;P1;durP1;ratioP1;P2;durP2;ratioP2
32319;SDS011;19080;51.750;5.888;2023-10-19T00:00:37;15.52;;;13.93;;
32319;SDS011;19080;51.750;5.888;2023-10-19T00:03:11;14.68;;;13.20;;
32319;SDS011;19080;51.750;5.888;2023-10-19T00:05:39;16.15;;;14.45;;
32319;SDS011;19080;51.750;5.888;2023-10-19T00:08:06;14.80;;;13.20;;
32319;SDS011;19080;51.750;5.888;2023-10-19T00:10:40;16.92;;;13.93;;
32319;SDS011;19080;51.750;5.888;2023-10-19T00:13:10;15.45;;;13.93;;
32319;SDS011;19080;51.750;5.888;2023-10-19T00:15:41;17.48;;;13.52;;
32319;SDS011;19080;51.750;5.888;2023-10-19T00:18:18;16.73;;;13.88;;
32319;SDS011;19080;51.750;5.888;2023-10-19T00:20:47;15.45;;;13.85;;
32319;SDS011;19080;51.750;5.888;2023-10-19T00:23:19;15.77;;;14.05;;
32319;SDS011;19080;51.750;5.888;2023-10-19T00:26:02;16.88;;;13.90;;
32319;SDS011;19080;51.750;5.888;2023-10-19T00:28:51;15.00;;;13.40;;
32319;SDS011;19080;51.750;5.888;2023-10-19T00:31:25;15.00;;;13.57;;
32319;SDS011;19080;51.750;5.888;2023-10-19T00:33:54;15.15;;;13.45;;
32319;SDS011;19080;51.750;5.888;2023-10-19T00:36:22;15.27;;;13.70;;
32319;SDS011;19080;51.750;5.888;2023-10-19T00:38:50;14.63;;;13.07;;
32319;SDS011;19080;51.750;5.888;2023-10-19T00:41:22;16.30;;;13.65;;
32319;SDS011;19080;51.750;5.888;2023-10-19T00:43:58;14.82;;;13.15;;
32319;SDS011;19080;51.750;5.888;2023-10-19T00:46:38;18.00;;;14.50;;
32319;SDS011;19080;51.750;5.888;2023-10-19T00:49:09;14.55;;;13.00;;
32319;SDS011;19080;51.750;5.888;2023-10-19T00:51:48;16.70;;;14.25;;
32319;SDS011;19080;51.750;5.888;2023-10-19T00:54:26;14.75;;;13.25;;
32319;SDS011;19080;51.750;5.888;2023-10-19T00:57:07;17.38;;;14.10;;
32319;SDS011;19080;51.750;5.888;2023-10-19T00:59:38;15.65;;;13.40;;
32319;SDS011;19080;51.750;5.888;2023-10-19T01:02:20;17.35;;;13.93;;
32319;SDS011;19080;51.750;5.888;2023-10-19T01:04:51;16.85;;;14.07;;
32319;SDS011;19080;51.750;5.888;2023-10-19T01:07:24;17.08;;;13.82;;
32319;SDS011;19080;51.750;5.888;2023-10-19T01:09:56;16.08;;;13.63;;
32319;SDS011;19080;51.750;5.888;2023-10-19T01:12:26;18.13;;;14.52;;
32319;SDS011;19080;51.750;5.888;2023-10-19T01:15:20;15.88;;;14.18;;
32319;SDS011;19080;51.750;5.888;2023-10-19T01:17:55;16.88;;;15.07;;
32319;SDS011;19080;51.750;5.888;2023-10-19T01:20:26;18.63;;;14.10;;
32319;SDS011;19080;51.750;5.888;2023-10-19T01:23:02;15.57;;;13.77;;
32319;SDS011;19080;51.750;5.888;2023-10-19T01:28:27;18.77;;;14.25;;
32319;SDS011;19080;51.750;5.888;2023-10-19T01:31:16;15.93;;;13.85;;
32319;SDS011;19080;51.750;5.888;2023-10-19T01:33:57;18.38;;;13.88;;
32319;SDS011;19080;51.750;5.888;2023-10-19T01:36:25;17.17;;;14.75;;
32319;SDS011;19080;51.750;5.888;2023-10-19T01:38:56;17.50;;;14.50;;
32319;SDS011;19080;51.750;5.888;2023-10-19T01:41:37;15.43;;;13.82;;
32319;SDS011;19080;51.750;5.888;2023-10-19T01:44:06;14.95;;;13.07;;
32319;SDS011;19080;51.750;5.888;2023-10-19T01:46:34;14.95;;;13.30;;
32319;SDS011;19080;51.750;5.888;2023-10-19T01:49:03;15.10;;;12.82;;
32319;SDS011;19080;51.750;5.888;2023-10-19T01:51:31;15.13;;;13.57;;
32319;SDS011;19080;51.750;5.888;2023-10-19T01:53:59;15.10;;;13.50;;
32319;SDS011;19080;51.750;5.888;2023-10-19T01:56:29;15.07;;;13.48;;
32319;SDS011;19080;51.750;5.888;2023-10-19T01:58:56;16.27;;;14.10;;
32319;SDS011;19080;51.750;5.888;2023-10-19T02:01:24;15.70;;;12.77;;
32319;SDS011;19080;51.750;5.888;2023-10-19T02:03:55;14.55;;;13.00;;
32319;SDS011;19080;51.750;5.888;2023-10-19T02:06:27;16.73;;;13.68;;
32319;SDS011;19080;51.750;5.888;2023-10-19T02:09:00;16.02;;;13.85;;
32319;SDS011;19080;51.750;5.888;2023-10-19T02:11:45;16.38;;;12.93;;
32319;SDS011;19080;51.750;5.888;2023-10-19T02:14:15;14.25;;;12.48;;
32319;SDS011;19080;51.750;5.888;2023-10-19T02:16:47;14.07;;;12.25;;
32319;SDS011;19080;51.750;5.888;2023-10-19T02:21:56;14.32;;;12.63;;
32319;SDS011;19080;51.750;5.888;2023-10-19T02:24:24;14.90;;;12.32;;
32319;SDS011;19080;51.750;5.888;2023-10-19T02:26:55;13.63;;;11.63;;
32319;SDS011;19080;51.750;5.888;2023-10-19T02:29:23;14.10;;;11.90;;
32319;SDS011;19080;51.750;5.888;2023-10-19T02:31:53;13.07;;;11.68;;
32319;SDS011;19080;51.750;5.888;2023-10-19T02:34:21;12.50;;;11.20;;
32319;SDS011;19080;51.750;5.888;2023-10-19T02:36:49;11.35;;;10.25;;
32319;SDS011;19080;51.750;5.888;2023-10-19T02:39:16;13.32;;;12.02;;
32319;SDS011;19080;51.750;5.888;2023-10-19T02:41:47;12.95;;;11.55;;
32319;SDS011;19080;51.750;5.888;2023-10-19T02:44:19;13.98;;;11.75;;
32319;SDS011;19080;51.750;5.888;2023-10-19T02:46:52;15.13;;;12.07;;
32319;SDS011;19080;51.750;5.888;2023-10-19T02:49:25;12.02;;;10.88;;
32319;SDS011;19080;51.750;5.888;2023-10-19T02:51:54;12.30;;;11.05;;
32319;SDS011;19080;51.750;5.888;2023-10-19T02:54:22;14.95;;;10.75;;
32319;SDS011;19080;51.750;5.888;2023-10-19T02:56:52;12.45;;;10.10;;
32319;SDS011;19080;51.750;5.888;2023-10-19T02:59:23;14.23;;;11.35;;
32319;SDS011;19080;51.750;5.888;2023-10-19T03:01:52;9.27;;;7.47;;
32319;SDS011;19080;51.750;5.888;2023-10-19T03:04:29;11.20;;;9.23;;
32319;SDS011;19080;51.750;5.888;2023-10-19T03:06:56;10.80;;;8.88;;
32319;SDS011;19080;51.750;5.888;2023-10-19T03:09:24;10.70;;;9.50;;
32319;SDS011;19080;51.750;5.888;2023-10-19T03:11:54;10.23;;;8.63;;
32319;SDS011;19080;51.750;5.888;2023-10-19T03:14:27;12.95;;;9.48;;
32319;SDS011;19080;51.750;5.888;2023-10-19T03:16:55;13.43;;;9.10;;
32319;SDS011;19080;51.750;5.888;2023-10-19T03:19:22;9.15;;;8.23;;
32319;SDS011;19080;51.750;5.888;2023-10-19T03:21:52;9.23;;;7.57;;
32319;SDS011;19080;51.750;5.888;2023-10-19T03:24:19;12.07;;;8.02;;
32319;SDS011;19080;51.750;5.888;2023-10-19T03:27:05;9.10;;;7.43;;
32319;SDS011;19080;51.750;5.888;2023-10-19T03:29:48;8.32;;;6.97;;
32319;SDS011;19080;51.750;5.888;2023-10-19T03:32:26;10.40;;;8.00;;
32319;SDS011;19080;51.750;5.888;2023-10-19T03:34:56;10.20;;;7.40;;
32319;SDS011;19080;51.750;5.888;2023-10-19T03:37:24;7.43;;;6.72;;
32319;SDS011;19080;51.750;5.888;2023-10-19T03:39:52;8.25;;;7.45;;
32319;SDS011;19080;51.750;5.888;2023-10-19T03:42:23;9.82;;;7.60;;
32319;SDS011;19080;51.750;5.888;2023-10-19T03:44:59;8.35;;;7.43;;
32319;SDS011;19080;51.750;5.888;2023-10-19T03:47:28;9.20;;;8.25;;
32319;SDS011;19080;51.750;5.888;2023-10-19T03:50:02;8.90;;;7.47;;
32319;SDS011;19080;51.750;5.888;2023-10-19T03:52:36;8.20;;;7.50;;
32319;SDS011;19080;51.750;5.888;2023-10-19T03:55:06;7.70;;;7.00;;
32319;SDS011;19080;51.750;5.888;2023-10-19T03:57:38;7.97;;;6.97;;
32319;SDS011;19080;51.750;5.888;2023-10-19T04:00:14;7.70;;;6.72;;
32319;SDS011;19080;51.750;5.888;2023-10-19T04:02:44;8.15;;;7.32;;
32319;SDS011;19080;51.750;5.888;2023-10-19T04:05:12;7.75;;;6.80;;
32319;SDS011;19080;51.750;5.888;2023-10-19T04:07:41;8.95;;;7.00;;
32319;SDS011;19080;51.750;5.888;2023-10-19T04:10:08;8.32;;;7.03;;
32319;SDS011;19080;51.750;5.888;2023-10-19T04:12:39;7.90;;;6.85;;
32319;SDS011;19080;51.750;5.888;2023-10-19T04:15:10;7.03;;;6.35;;
32319;SDS011;19080;51.750;5.888;2023-10-19T04:17:40;6.93;;;6.22;;
32319;SDS011;19080;51.750;5.888;2023-10-19T04:20:09;7.55;;;6.70;;
32319;SDS011;19080;51.750;5.888;2023-10-19T04:22:49;8.15;;;7.35;;
32319;SDS011;19080;51.750;5.888;2023-10-19T04:25:18;8.35;;;6.75;;
32319;SDS011;19080;51.750;5.888;2023-10-19T04:27:45;7.60;;;6.80;;
32319;SDS011;19080;51.750;5.888;2023-10-19T04:30:15;7.38;;;5.80;;
32319;SDS011;19080;51.750;5.888;2023-10-19T04:32:42;7.03;;;6.30;;
32319;SDS011;19080;51.750;5.888;2023-10-19T04:35:10;7.22;;;6.53;;
32319;SDS011;19080;51.750;5.888;2023-10-19T04:37:40;7.03;;;6.25;;
32319;SDS011;19080;51.750;5.888;2023-10-19T04:40:09;7.30;;;6.57;;
32319;SDS011;19080;51.750;5.888;2023-10-19T04:42:40;7.72;;;6.43;;
32319;SDS011;19080;51.750;5.888;2023-10-19T04:45:06;7.60;;;6.10;;
32319;SDS011;19080;51.750;5.888;2023-10-19T04:47:33;6.75;;;6.15;;
32319;SDS011;19080;51.750;5.888;2023-10-19T04:50:03;10.63;;;6.03;;
32319;SDS011;19080;51.750;5.888;2023-10-19T04:52:30;6.35;;;5.75;;
32319;SDS011;19080;51.750;5.888;2023-10-19T04:54:58;6.55;;;5.85;;
32319;SDS011;19080;51.750;5.888;2023-10-19T04:57:25;6.43;;;5.75;;
32319;SDS011;19080;51.750;5.888;2023-10-19T04:59:55;6.47;;;5.60;;
32319;SDS011;19080;51.750;5.888;2023-10-19T05:02:22;8.98;;;5.80;;
32319;SDS011;19080;51.750;5.888;2023-10-19T05:04:49;8.13;;;6.18;;
32319;SDS011;19080;51.750;5.888;2023-10-19T05:07:16;6.65;;;5.70;;
32319;SDS011;19080;51.750;5.888;2023-10-19T05:09:46;8.43;;;5.60;;
32319;SDS011;19080;51.750;5.888;2023-10-19T05:12:14;7.57;;;6.40;;
32319;SDS011;19080;51.750;5.888;2023-10-19T05:14:41;6.20;;;5.57;;
32319;SDS011;19080;51.750;5.888;2023-10-19T05:17:09;8.27;;;5.93;;
32319;SDS011;19080;51.750;5.888;2023-10-19T05:19:38;11.15;;;7.53;;
32319;SDS011;19080;51.750;5.888;2023-10-19T05:22:06;13.90;;;11.43;;
32319;SDS011;19080;51.750;5.888;2023-10-19T05:24:35;19.20;;;13.02;;
32319;SDS011;19080;51.750;5.888;2023-10-19T05:27:02;11.65;;;8.82;;
32319;SDS011;19080;51.750;5.888;2023-10-19T05:29:31;7.70;;;6.90;;
32319;SDS011;19080;51.750;5.888;2023-10-19T05:32:00;7.65;;;6.43;;
32319;SDS011;19080;51.750;5.888;2023-10-19T05:34:29;6.93;;;5.78;;
32319;SDS011;19080;51.750;5.888;2023-10-19T05:36:59;6.90;;;5.70;;
32319;SDS011;19080;51.750;5.888;2023-10-19T05:39:28;7.20;;;5.18;;
32319;SDS011;19080;51.750;5.888;2023-10-19T05:41:57;7.45;;;4.80;;
32319;SDS011;19080;51.750;5.888;2023-10-19T05:44:28;6.45;;;4.60;;
32319;SDS011;19080;51.750;5.888;2023-10-19T05:46:57;7.60;;;4.90;;
32319;SDS011;19080;51.750;5.888;2023-10-19T05:49:25;5.97;;;5.05;;
32319;SDS011;19080;51.750;5.888;2023-10-19T05:51:52;6.45;;;4.72;;
32319;SDS011;19080;51.750;5.888;2023-10-19T05:54:19;6.80;;;4.00;;
32319;SDS011;19080;51.750;5.888;2023-10-19T05:56:46;7.65;;;4.07;;
32319;SDS011;19080;51.750;5.888;2023-10-19T05:59:12;10.15;;;5.05;;
32319;SDS011;19080;51.750;5.888;2023-10-19T06:01:41;4.82;;;3.75;;
32319;SDS011;19080;51.750;5.888;2023-10-19T06:04:08;5.40;;;3.65;;
32319;SDS011;19080;51.750;5.888;2023-10-19T06:06:34;4.53;;;3.30;;
32319;SDS011;19080;51.750;5.888;2023-10-19T06:09:02;6.53;;;3.20;;
32319;SDS011;19080;51.750;5.888;2023-10-19T06:11:31;7.88;;;3.25;;
32319;SDS011;19080;51.750;5.888;2023-10-19T06:13:59;10.63;;;3.20;;
32319;SDS011;19080;51.750;5.888;2023-10-19T06:16:26;5.53;;;2.70;;
32319;SDS011;19080;51.750;5.888;2023-10-19T06:18:54;4.55;;;2.42;;
32319;SDS011;19080;51.750;5.888;2023-10-19T06:21:21;4.82;;;2.45;;
32319;SDS011;19080;51.750;5.888;2023-10-19T06:23:49;8.07;;;2.60;;
32319;SDS011;19080;51.750;5.888;2023-10-19T06:26:17;4.25;;;2.50;;
32319;SDS011;19080;51.750;5.888;2023-10-19T06:28:43;4.55;;;2.08;;
32319;SDS011;19080;51.750;5.888;2023-10-19T06:31:10;8.90;;;2.20;;
32319;SDS011;19080;51.750;5.888;2023-10-19T06:33:37;4.60;;;1.90;;
32319;SDS011;19080;51.750;5.888;2023-10-19T06:36:08;7.15;;;2.10;;
32319;SDS011;19080;51.750;5.888;2023-10-19T06:38:35;7.25;;;2.25;;
32319;SDS011;19080;51.750;5.888;2023-10-19T06:41:12;3.90;;;1.63;;
32319;SDS011;19080;51.750;5.888;2023-10-19T06:43:39;5.57;;;1.98;;
32319;SDS011;19080;51.750;5.888;2023-10-19T06:46:07;6.72;;;1.77;;
32319;SDS011;19080;51.750;5.888;2023-10-19T06:48:38;12.17;;;1.80;;
32319;SDS011;19080;51.750;5.888;2023-10-19T06:51:06;4.97;;;2.10;;
32319;SDS011;19080;51.750;5.888;2023-10-19T06:53:33;4.47;;;1.77;;
32319;SDS011;19080;51.750;5.888;2023-10-19T06:56:00;6.18;;;1.63;;
32319;SDS011;19080;51.750;5.888;2023-10-19T06:58:28;8.50;;;1.90;;
32319;SDS011;19080;51.750;5.888;2023-10-19T07:00:55;12.00;;;2.03;;
32319;SDS011;19080;51.750;5.888;2023-10-19T07:03:31;6.15;;;1.83;;
32319;SDS011;19080;51.750;5.888;2023-10-19T07:05:58;5.85;;;1.85;;
32319;SDS011;19080;51.750;5.888;2023-10-19T07:08:26;4.90;;;1.73;;
32319;SDS011;19080;51.750;5.888;2023-10-19T07:10:53;7.35;;;2.05;;
32319;SDS011;19080;51.750;5.888;2023-10-19T07:13:20;5.93;;;1.88;;
32319;SDS011;19080;51.750;5.888;2023-10-19T07:15:48;8.13;;;1.65;;
32319;SDS011;19080;51.750;5.888;2023-10-19T07:18:18;4.70;;;1.95;;
32319;SDS011;19080;51.750;5.888;2023-10-19T07:20:45;8.40;;;2.05;;
32319;SDS011;19080;51.750;5.888;2023-10-19T07:23:15;6.65;;;1.90;;
32319;SDS011;19080;51.750;5.888;2023-10-19T07:25:45;6.75;;;1.90;;
32319;SDS011;19080;51.750;5.888;2023-10-19T07:28:15;2.40;;;1.45;;
32319;SDS011;19080;51.750;5.888;2023-10-19T07:30:43;12.23;;;2.13;;
32319;SDS011;19080;51.750;5.888;2023-10-19T07:33:10;5.55;;;2.28;;
32319;SDS011;19080;51.750;5.888;2023-10-19T07:35:44;5.40;;;1.92;;
32319;SDS011;19080;51.750;5.888;2023-10-19T07:38:16;9.52;;;2.10;;
32319;SDS011;19080;51.750;5.888;2023-10-19T07:40:43;5.47;;;1.67;;
32319;SDS011;19080;51.750;5.888;2023-10-19T07:43:10;10.15;;;2.58;;
32319;SDS011;19080;51.750;5.888;2023-10-19T07:45:36;6.05;;;2.03;;
32319;SDS011;19080;51.750;5.888;2023-10-19T07:48:04;6.63;;;2.00;;
32319;SDS011;19080;51.750;5.888;2023-10-19T07:50:37;4.88;;;1.60;;
32319;SDS011;19080;51.750;5.888;2023-10-19T07:53:07;10.90;;;2.88;;
32319;SDS011;19080;51.750;5.888;2023-10-19T07:55:36;8.20;;;2.05;;
32319;SDS011;19080;51.750;5.888;2023-10-19T07:58:05;5.38;;;2.13;;
32319;SDS011;19080;51.750;5.888;2023-10-19T08:00:35;7.15;;;2.20;;
32319;SDS011;19080;51.750;5.888;2023-10-19T08:03:02;7.55;;;2.40;;
32319;SDS011;19080;51.750;5.888;2023-10-19T08:05:31;5.60;;;2.03;;
32319;SDS011;19080;51.750;5.888;2023-10-19T08:08:00;9.82;;;4.32;;
32319;SDS011;19080;51.750;5.888;2023-10-19T08:10:30;6.93;;;2.88;;
32319;SDS011;19080;51.750;5.888;2023-10-19T08:12:57;8.45;;;3.03;;
32319;SDS011;19080;51.750;5.888;2023-10-19T08:15:25;9.18;;;2.55;;
32319;SDS011;19080;51.750;5.888;2023-10-19T08:17:52;6.93;;;2.38;;
32319;SDS011;19080;51.750;5.888;2023-10-19T08:20:22;11.95;;;3.22;;
32319;SDS011;19080;51.750;5.888;2023-10-19T08:22:51;11.70;;;3.05;;
32319;SDS011;19080;51.750;5.888;2023-10-19T08:25:19;8.13;;;2.60;;
32319;SDS011;19080;51.750;5.888;2023-10-19T08:27:47;5.75;;;2.42;;
32319;SDS011;19080;51.750;5.888;2023-10-19T08:30:18;10.20;;;2.88;;
32319;SDS011;19080;51.750;5.888;2023-10-19T08:32:51;6.63;;;2.38;;
32319;SDS011;19080;51.750;5.888;2023-10-19T08:35:18;9.38;;;3.22;;
32319;SDS011;19080;51.750;5.888;2023-10-19T08:37:53;9.48;;;2.65;;
32319;SDS011;19080;51.750;5.888;2023-10-19T08:40:20;10.55;;;3.13;;
32319;SDS011;19080;51.750;5.888;2023-10-19T08:42:50;10.52;;;3.28;;
32319;SDS011;19080;51.750;5.888;2023-10-19T08:45:17;9.85;;;2.88;;
32319;SDS011;19080;51.750;5.888;2023-10-19T08:47:48;11.45;;;3.03;;
32319;SDS011;19080;51.750;5.888;2023-10-19T08:50:28;7.43;;;2.83;;
32319;SDS011;19080;51.750;5.888;2023-10-19T08:52:57;11.13;;;2.95;;
32319;SDS011;19080;51.750;5.888;2023-10-19T08:55:25;6.70;;;2.83;;
32319;SDS011;19080;51.750;5.888;2023-10-19T08:58:06;9.25;;;3.05;;
32319;SDS011;19080;51.750;5.888;2023-10-19T09:00:43;9.52;;;2.88;;
32319;SDS011;19080;51.750;5.888;2023-10-19T09:03:14;7.35;;;2.70;;
32319;SDS011;19080;51.750;5.888;2023-10-19T09:05:44;8.68;;;3.28;;
32319;SDS011;19080;51.750;5.888;2023-10-19T09:08:18;11.18;;;4.25;;
32319;SDS011;19080;51.750;5.888;2023-10-19T09:10:47;7.43;;;3.72;;
32319;SDS011;19080;51.750;5.888;2023-10-19T09:13:15;8.85;;;2.85;;
32319;SDS011;19080;51.750;5.888;2023-10-19T09:15:46;7.63;;;2.85;;
32319;SDS011;19080;51.750;5.888;2023-10-19T09:20:43;5.55;;;2.55;;
32319;SDS011;19080;51.750;5.888;2023-10-19T09:23:35;4.10;;;1.98;;
32319;SDS011;19080;51.750;5.888;2023-10-19T09:26:03;8.38;;;2.40;;
32319;SDS011;19080;51.750;5.888;2023-10-19T09:28:36;6.70;;;2.30;;
32319;SDS011;19080;51.750;5.888;2023-10-19T09:31:04;6.72;;;2.08;;
32319;SDS011;19080;51.750;5.888;2023-10-19T09:33:33;8.18;;;2.22;;
32319;SDS011;19080;51.750;5.888;2023-10-19T09:36:03;7.70;;;2.60;;
32319;SDS011;19080;51.750;5.888;2023-10-19T09:41:13;3.78;;;1.83;;
32319;SDS011;19080;51.750;5.888;2023-10-19T09:43:46;6.93;;;2.60;;
32319;SDS011;19080;51.750;5.888;2023-10-19T09:46:27;8.90;;;2.47;;
32319;SDS011;19080;51.750;5.888;2023-10-19T09:48:58;6.15;;;2.40;;
32319;SDS011;19080;51.750;5.888;2023-10-19T09:51:26;7.95;;;2.78;;
32319;SDS011;19080;51.750;5.888;2023-10-19T09:54:05;6.18;;;2.30;;
32319;SDS011;19080;51.750;5.888;2023-10-19T09:59:05;8.98;;;2.20;;
32319;SDS011;19080;51.750;5.888;2023-10-19T10:04:31;9.02;;;2.90;;
32319;SDS011;19080;51.750;5.888;2023-10-19T10:06:59;8.95;;;2.05;;
32319;SDS011;19080;51.750;5.888;2023-10-19T10:09:26;7.32;;;2.65;;
32319;SDS011;19080;51.750;5.888;2023-10-19T10:11:53;7.03;;;2.13;;
32319;SDS011;19080;51.750;5.888;2023-10-19T10:14:23;8.77;;;2.45;;
32319;SDS011;19080;51.750;5.888;2023-10-19T10:17:00;10.32;;;2.05;;
32319;SDS011;19080;51.750;5.888;2023-10-19T10:19:28;8.93;;;2.03;;
32319;SDS011;19080;51.750;5.888;2023-10-19T10:22:08;9.10;;;2.42;;
32319;SDS011;19080;51.750;5.888;2023-10-19T10:24:41;7.55;;;2.38;;
32319;SDS011;19080;51.750;5.888;2023-10-19T10:27:08;8.90;;;2.45;;
32319;SDS011;19080;51.750;5.888;2023-10-19T10:29:36;12.30;;;2.83;;
32319;SDS011;19080;51.750;5.888;2023-10-19T10:32:02;11.05;;;2.38;;
32319;SDS011;19080;51.750;5.888;2023-10-19T10:37:05;9.68;;;1.98;;
32319;SDS011;19080;51.750;5.888;2023-10-19T10:39:35;9.15;;;2.40;;
32319;SDS011;19080;51.750;5.888;2023-10-19T10:42:03;8.95;;;1.70;;
32319;SDS011;19080;51.750;5.888;2023-10-19T10:44:44;9.98;;;2.55;;
32319;SDS011;19080;51.750;5.888;2023-10-19T10:47:18;8.25;;;2.17;;
32319;SDS011;19080;51.750;5.888;2023-10-19T10:49:52;9.93;;;2.55;;
32319;SDS011;19080;51.750;5.888;2023-10-19T10:52:27;11.93;;;2.10;;
32319;SDS011;19080;51.750;5.888;2023-10-19T10:54:56;11.98;;;2.55;;
32319;SDS011;19080;51.750;5.888;2023-10-19T10:57:28;7.57;;;2.05;;
32319;SDS011;19080;51.750;5.888;2023-10-19T11:00:04;6.07;;;2.08;;
32319;SDS011;19080;51.750;5.888;2023-10-19T11:02:43;9.88;;;2.40;;
32319;SDS011;19080;51.750;5.888;2023-10-19T11:05:12;9.13;;;2.08;;
32319;SDS011;19080;51.750;5.888;2023-10-19T11:07:41;8.75;;;2.22;;
32319;SDS011;19080;51.750;5.888;2023-10-19T11:10:30;8.93;;;2.33;;
32319;SDS011;19080;51.750;5.888;2023-10-19T11:13:04;7.63;;;2.55;;
32319;SDS011;19080;51.750;5.888;2023-10-19T11:15:35;7.28;;;1.90;;
32319;SDS011;19080;51.750;5.888;2023-10-19T11:18:05;6.57;;;1.80;;
32319;SDS011;19080;51.750;5.888;2023-10-19T11:20:35;8.02;;;2.22;;
32319;SDS011;19080;51.750;5.888;2023-10-19T11:23:02;11.18;;;2.17;;
32319;SDS011;19080;51.750;5.888;2023-10-19T11:25:29;7.03;;;2.08;;
32319;SDS011;19080;51.750;5.888;2023-10-19T11:27:59;9.20;;;2.28;;
32319;SDS011;19080;51.750;5.888;2023-10-19T11:30:27;9.75;;;2.38;;
32319;SDS011;19080;51.750;5.888;2023-10-19T11:32:55;7.22;;;1.77;;
32319;SDS011;19080;51.750;5.888;2023-10-19T11:35:29;9.05;;;2.22;;
32319;SDS011;19080;51.750;5.888;2023-10-19T11:37:58;8.65;;;1.77;;
32319;SDS011;19080;51.750;5.888;2023-10-19T11:40:26;7.50;;;2.08;;
32319;SDS011;19080;51.750;5.888;2023-10-19T11:42:53;10.05;;;2.40;;
32319;SDS011;19080;51.750;5.888;2023-10-19T11:45:25;9.97;;;2.27;;
32319;SDS011;19080;51.750;5.888;2023-10-19T11:47:52;6.65;;;1.85;;
32319;SDS011;19080;51.750;5.888;2023-10-19T11:50:19;7.22;;;2.20;;
32319;SDS011;19080;51.750;5.888;2023-10-19T11:52:46;9.48;;;2.60;;
32319;SDS011;19080;51.750;5.888;2023-10-19T11:55:13;6.82;;;1.73;;
32319;SDS011;19080;51.750;5.888;2023-10-19T11:57:44;6.43;;;2.33;;
32319;SDS011;19080;51.750;5.888;2023-10-19T12:00:11;10.05;;;2.13;;
32319;SDS011;19080;51.750;5.888;2023-10-19T12:02:48;8.10;;;1.80;;
32319;SDS011;19080;51.750;5.888;2023-10-19T12:05:16;8.00;;;2.30;;
32319;SDS011;19080;51.750;5.888;2023-10-19T12:07:43;9.05;;;2.05;;
32319;SDS011;19080;51.750;5.888;2023-10-19T12:10:11;10.85;;;2.05;;
32319;SDS011;19080;51.750;5.888;2023-10-19T12:12:41;11.45;;;2.75;;
32319;SDS011;19080;51.750;5.888;2023-10-19T12:15:26;10.00;;;2.28;;
32319;SDS011;19080;51.750;5.888;2023-10-19T12:17:53;11.70;;;2.47;;
32319;SDS011;19080;51.750;5.888;2023-10-19T12:20:21;14.10;;;2.72;;
32319;SDS011;19080;51.750;5.888;2023-10-19T12:22:51;8.13;;;1.98;;
32319;SDS011;19080;51.750;5.888;2023-10-19T12:25:21;7.57;;;2.10;;
32319;SDS011;19080;51.750;5.888;2023-10-19T12:28:02;9.07;;;2.00;;
32319;SDS011;19080;51.750;5.888;2023-10-19T12:30:30;6.32;;;1.70;;
32319;SDS011;19080;51.750;5.888;2023-10-19T12:33:05;13.75;;;2.72;;
32319;SDS011;19080;51.750;5.888;2023-10-19T12:35:41;9.45;;;2.25;;
32319;SDS011;19080;51.750;5.888;2023-10-19T12:38:16;11.98;;;2.78;;
32319;SDS011;19080;51.750;5.888;2023-10-19T12:40:43;11.48;;;2.53;;
32319;SDS011;19080;51.750;5.888;2023-10-19T12:43:13;14.05;;;2.38;;
32319;SDS011;19080;51.750;5.888;2023-10-19T12:45:41;8.18;;;2.20;;
32319;SDS011;19080;51.750;5.888;2023-10-19T12:48:10;10.45;;;2.28;;
32319;SDS011;19080;51.750;5.888;2023-10-19T12:50:37;7.20;;;2.05;;
32319;SDS011;19080;51.750;5.888;2023-10-19T12:53:05;7.68;;;2.20;;
32319;SDS011;19080;51.750;5.888;2023-10-19T12:55:33;7.03;;;2.00;;
32319;SDS011;19080;51.750;5.888;2023-10-19T12:58:01;7.53;;;1.85;;
32319;SDS011;19080;51.750;5.888;2023-10-19T13:00:33;11.55;;;2.42;;
32319;SDS011;19080;51.750;5.888;2023-10-19T13:03:07;6.32;;;1.85;;
32319;SDS011;19080;51.750;5.888;2023-10-19T13:05:35;9.15;;;2.45;;
32319;SDS011;19080;51.750;5.888;2023-10-19T13:08:07;11.85;;;2.30;;
32319;SDS011;19080;51.750;5.888;2023-10-19T13:10:35;9.77;;;2.30;;
32319;SDS011;19080;51.750;5.888;2023-10-19T13:13:07;10.98;;;2.70;;
32319;SDS011;19080;51.750;5.888;2023-10-19T13:15:39;11.35;;;2.00;;
32319;SDS011;19080;51.750;5.888;2023-10-19T13:18:08;8.95;;;2.20;;
32319;SDS011;19080;51.750;5.888;2023-10-19T13:20:36;10.10;;;2.33;;
32319;SDS011;19080;51.750;5.888;2023-10-19T13:23:05;12.48;;;2.83;;
32319;SDS011;19080;51.750;5.888;2023-10-19T13:25:39;11.43;;;2.95;;
32319;SDS011;19080;51.750;5.888;2023-10-19T13:28:38;14.60;;;3.20;;
32319;SDS011;19080;51.750;5.888;2023-10-19T13:31:05;11.50;;;3.03;;
32319;SDS011;19080;51.750;5.888;2023-10-19T13:33:35;8.18;;;2.55;;
32319;SDS011;19080;51.750;5.888;2023-10-19T13:36:03;11.63;;;2.90;;
32319;SDS011;19080;51.750;5.888;2023-10-19T13:38:32;11.00;;;2.80;;
32319;SDS011;19080;51.750;5.888;2023-10-19T13:41:04;9.38;;;2.83;;
32319;SDS011;19080;51.750;5.888;2023-10-19T13:43:36;9.15;;;2.75;;
32319;SDS011;19080;51.750;5.888;2023-10-19T13:46:05;8.65;;;3.00;;
32319;SDS011;19080;51.750;5.888;2023-10-19T13:48:32;6.55;;;2.30;;
32319;SDS011;19080;51.750;5.888;2023-10-19T13:50:59;10.10;;;2.60;;
32319;SDS011;19080;51.750;5.888;2023-10-19T13:53:39;6.93;;;2.25;;
32319;SDS011;19080;51.750;5.888;2023-10-19T13:56:07;11.73;;;2.67;;
32319;SDS011;19080;51.750;5.888;2023-10-19T13:58:35;9.25;;;2.88;;
32319;SDS011;19080;51.750;5.888;2023-10-19T14:01:02;8.13;;;2.50;;
32319;SDS011;19080;51.750;5.888;2023-10-19T14:06:04;10.45;;;2.28;;
32319;SDS011;19080;51.750;5.888;2023-10-19T14:08:31;8.80;;;2.60;;
32319;SDS011;19080;51.750;5.888;2023-10-19T14:11:02;7.93;;;2.45;;
32319;SDS011;19080;51.750;5.888;2023-10-19T14:13:30;9.77;;;2.50;;
32319;SDS011;19080;51.750;5.888;2023-10-19T14:15:56;6.75;;;2.35;;
32319;SDS011;19080;51.750;5.888;2023-10-19T14:18:23;9.20;;;2.20;;
32319;SDS011;19080;51.750;5.888;2023-10-19T14:20:50;8.05;;;2.45;;
32319;SDS011;19080;51.750;5.888;2023-10-19T14:23:17;15.55;;;3.92;;
32319;SDS011;19080;51.750;5.888;2023-10-19T14:25:44;11.68;;;2.72;;
32319;SDS011;19080;51.750;5.888;2023-10-19T14:28:11;9.05;;;2.70;;
32319;SDS011;19080;51.750;5.888;2023-10-19T14:30:38;12.20;;;3.63;;
32319;SDS011;19080;51.750;5.888;2023-10-19T14:33:05;6.35;;;2.40;;
32319;SDS011;19080;51.750;5.888;2023-10-19T14:35:37;7.80;;;3.25;;
32319;SDS011;19080;51.750;5.888;2023-10-19T14:38:09;13.23;;;2.90;;
32319;SDS011;19080;51.750;5.888;2023-10-19T14:40:37;12.40;;;3.70;;
32319;SDS011;19080;51.750;5.888;2023-10-19T14:43:04;8.63;;;3.60;;
32319;SDS011;19080;51.750;5.888;2023-10-19T14:45:31;8.93;;;3.22;;
32319;SDS011;19080;51.750;5.888;2023-10-19T14:47:59;10.80;;;2.83;;
32319;SDS011;19080;51.750;5.888;2023-10-19T14:50:30;10.02;;;3.20;;
32319;SDS011;19080;51.750;5.888;2023-10-19T14:52:57;14.88;;;3.95;;
32319;SDS011;19080;51.750;5.888;2023-10-19T14:55:24;10.35;;;3.40;;
32319;SDS011;19080;51.750;5.888;2023-10-19T14:57:52;9.82;;;3.58;;
32319;SDS011;19080;51.750;5.888;2023-10-19T15:00:24;9.50;;;3.42;;
32319;SDS011;19080;51.750;5.888;2023-10-19T15:03:01;9.95;;;3.35;;
32319;SDS011;19080;51.750;5.888;2023-10-19T15:05:36;16.42;;;4.05;;
32319;SDS011;19080;51.750;5.888;2023-10-19T15:08:04;10.00;;;3.42;;
32319;SDS011;19080;51.750;5.888;2023-10-19T15:10:33;11.23;;;3.50;;
32319;SDS011;19080;51.750;5.888;2023-10-19T15:13:01;10.07;;;3.80;;
32319;SDS011;19080;51.750;5.888;2023-10-19T15:15:28;12.73;;;3.55;;
32319;SDS011;19080;51.750;5.888;2023-10-19T15:17:56;9.60;;;2.92;;
32319;SDS011;19080;51.750;5.888;2023-10-19T15:20:26;10.90;;;3.67;;